createdAt,value
2019-02-12T00:04:36.479Z,5.75
2019-02-12T00:09:42.765Z,5.17
2019-02-12T00:14:49.182Z,5.60
2019-02-12T00:19:55.435Z,6.67
2019-02-12T00:25:01.710Z,6.97
2019-02-12T00:30:10.764Z,6.07
2019-02-12T00:35:16.995Z,5.20
2019-02-12T00:40:23.262Z,5.90
2019-02-12T00:45:29.584Z,5.53
2019-02-12T00:50:35.914Z,5.53
2019-02-12T00:55:42.167Z,6.00
2019-02-12T01:00:48.435Z,6.47
2019-02-12T01:05:54.896Z,5.70
2019-02-12T01:11:02.962Z,6.43
2019-02-12T01:16:09.423Z,5.23
2019-02-12T01:21:15.851Z,6.10
2019-02-12T01:26:22.122Z,5.83
2019-02-12T01:31:30.235Z,6.47
2019-02-12T01:36:36.484Z,7.27
2019-02-12T01:41:42.711Z,7.27
2019-02-12T01:46:48.966Z,7.57
2019-02-12T01:51:55.220Z,7.83
2019-02-12T01:57:01.547Z,7.50
2019-02-12T02:02:07.855Z,8.17
2019-02-12T02:07:14.111Z,7.83
2019-02-12T02:12:20.338Z,7.93
2019-02-12T02:17:26.549Z,8.13
2019-02-12T02:22:32.787Z,9.23
2019-02-12T02:27:39.261Z,9.78
2019-02-12T02:32:45.521Z,9.20
2019-02-12T02:37:53.572Z,8.08
2019-02-12T02:42:59.841Z,8.30
2019-02-12T02:48:06.101Z,8.70
2019-02-12T02:53:12.389Z,10.17
2019-02-12T02:58:18.586Z,9.95
2019-02-12T03:03:24.891Z,9.73
2019-02-12T03:08:31.094Z,10.45
2019-02-12T03:13:37.401Z,10.30
2019-02-12T03:18:43.709Z,10.90
2019-02-12T03:23:49.970Z,9.97
2019-02-12T03:28:56.253Z,10.00
2019-02-12T03:34:02.453Z,9.90
2019-02-12T03:39:08.730Z,10.63
2019-02-12T03:44:14.959Z,10.37
2019-02-12T03:49:21.182Z,11.00
2019-02-12T03:54:27.559Z,9.90
2019-02-12T03:59:34.244Z,11.17
2019-02-12T04:04:40.628Z,10.47
2019-02-12T04:09:46.871Z,9.70
2019-02-12T04:14:53.142Z,9.93
2019-02-12T04:19:59.418Z,10.33
2019-02-12T04:25:05.810Z,9.95
2019-02-12T04:30:12.025Z,11.18
2019-02-12T04:35:18.287Z,9.80
2019-02-12T04:40:24.505Z,10.40
2019-02-12T04:45:30.706Z,10.00
2019-02-12T04:50:36.995Z,10.90
2019-02-12T04:55:43.181Z,9.77
2019-02-12T05:00:49.518Z,11.22
2019-02-12T05:05:55.811Z,9.30
2019-02-12T05:11:07.544Z,10.37
2019-02-12T05:16:13.772Z,9.70
2019-02-12T05:21:20.111Z,9.73
2019-02-12T05:26:26.310Z,10.63
2019-02-12T05:31:32.519Z,10.47
2019-02-12T05:36:38.755Z,9.87
2019-02-12T05:41:45.065Z,9.67
2019-02-12T05:46:51.399Z,9.80
2019-02-12T05:51:57.701Z,9.57
2019-02-12T05:57:05.767Z,10.00
2019-02-12T06:02:12.128Z,10.00
2019-02-12T06:07:18.452Z,10.80
2019-02-12T06:12:24.733Z,9.60
2019-02-12T06:17:31.034Z,10.83
2019-02-12T06:22:37.241Z,9.80
2019-02-12T06:27:43.464Z,10.07
2019-02-12T06:32:49.739Z,9.87
2019-02-12T06:37:55.978Z,9.10
2019-02-12T06:43:02.320Z,11.22
2019-02-12T06:48:08.550Z,11.35
2019-02-12T06:53:15.340Z,10.57
2019-02-12T06:58:21.658Z,10.78
2019-02-12T07:03:49.527Z,10.83
2019-02-12T07:09:21.472Z,10.20
2019-02-12T07:15:03.669Z,11.07
2019-02-12T07:20:23.194Z,12.27
2019-02-12T07:25:59.231Z,11.87
2019-02-12T07:31:34.666Z,13.05
2019-02-12T07:37:24.344Z,13.03
2019-02-12T07:43:07.017Z,13.50
2019-02-12T07:48:56.501Z,15.20
2019-02-12T07:54:29.682Z,15.13
2019-02-12T07:59:54.239Z,15.30
2019-02-12T08:05:44.108Z,17.00
2019-02-12T08:11:27.052Z,18.63
2019-02-12T08:17:13.273Z,15.80
2019-02-12T08:22:57.104Z,16.48
2019-02-12T08:28:27.202Z,17.17
2019-02-12T08:34:04.470Z,19.12
2019-02-12T08:39:43.421Z,18.85
2019-02-12T08:45:14.144Z,19.75
2019-02-12T08:51:04.385Z,19.77
2019-02-12T08:56:24.950Z,21.20
2019-02-12T09:02:20.762Z,21.75
2019-02-12T09:07:57.116Z,24.63
2019-02-12T09:13:36.914Z,25.33
2019-02-12T09:19:03.408Z,27.13
2019-02-12T09:24:25.888Z,27.62
2019-02-12T09:29:54.543Z,28.77
2019-02-12T09:36:05.879Z,30.17
2019-02-12T09:41:46.081Z,27.15
2019-02-12T09:47:23.974Z,28.87
2019-02-12T09:53:14.364Z,30.43
2019-02-12T09:59:04.542Z,28.75
2019-02-12T10:05:04.779Z,29.30
2019-02-12T10:10:45.672Z,25.90
2019-02-12T10:16:34.050Z,27.70
2019-02-12T10:22:06.976Z,24.23
2019-02-12T10:28:00.478Z,26.05
2019-02-12T10:33:06.771Z,26.67
2019-02-12T10:43:19.328Z,24.37
2019-02-12T10:48:25.740Z,25.17
2019-02-12T10:53:32.023Z,22.40
2019-02-12T10:58:38.307Z,22.03
2019-02-12T11:03:44.567Z,22.50
2019-02-12T11:08:50.993Z,22.77
2019-02-12T11:13:57.323Z,21.68
2019-02-12T11:19:03.590Z,20.70
2019-02-12T11:24:09.836Z,19.03
2019-02-12T11:29:17.104Z,16.90
2019-02-12T11:34:23.736Z,17.37
2019-02-12T11:39:30.035Z,17.20
2019-02-12T11:44:36.251Z,17.25
2019-02-12T11:49:43.550Z,17.27
2019-02-12T11:54:49.816Z,15.13
2019-02-12T11:59:56.090Z,14.07
2019-02-12T12:05:02.496Z,13.03
2019-02-12T12:10:10.023Z,13.57
2019-02-12T12:15:16.472Z,14.23
2019-02-12T12:20:22.759Z,13.48
2019-02-12T12:25:28.967Z,14.60
2019-02-12T12:30:35.222Z,13.50
2019-02-12T12:35:41.485Z,17.60
2019-02-12T12:40:47.707Z,14.33
2019-02-12T12:45:53.923Z,13.93
2019-02-12T12:51:00.141Z,13.37
2019-02-12T12:56:06.481Z,14.47
2019-02-12T13:01:12.763Z,15.63
2019-02-12T13:06:19.014Z,14.68
2019-02-12T13:11:26.628Z,14.83
2019-02-12T13:16:33.095Z,15.50
2019-02-12T13:21:39.390Z,15.23
2019-02-12T13:26:45.693Z,13.33
2019-02-12T13:31:51.925Z,14.47
2019-02-12T13:36:58.216Z,14.27
2019-02-12T13:42:04.436Z,16.60
2019-02-12T13:47:10.713Z,16.13
2019-02-12T13:52:17.039Z,19.23
2019-02-12T13:57:23.449Z,15.23
2019-02-12T14:02:29.703Z,14.87
2019-02-12T14:07:35.963Z,13.93
2019-02-12T14:12:42.175Z,15.17
2019-02-12T14:17:48.414Z,14.00
2019-02-12T14:22:54.649Z,13.53
2019-02-12T14:28:00.916Z,14.80
2019-02-12T14:33:07.140Z,14.20
2019-02-12T14:38:13.405Z,14.60
2019-02-12T14:43:19.677Z,13.90
2019-02-12T14:48:25.958Z,13.90
2019-02-12T14:53:32.207Z,13.80
2019-02-12T14:58:38.748Z,13.43
2019-02-12T15:03:45.012Z,13.00
2019-02-12T15:08:51.283Z,13.17
2019-02-12T15:13:57.678Z,12.23
2019-02-12T15:19:04.028Z,12.93
2019-02-12T15:24:11.243Z,13.03
2019-02-12T15:29:17.499Z,14.33
2019-02-12T15:34:23.746Z,13.30
2019-02-12T15:39:30.014Z,14.63
2019-02-12T15:44:36.270Z,13.97
2019-02-12T15:49:42.657Z,13.10
2019-02-12T15:54:48.935Z,13.47
2019-02-12T15:59:56.104Z,13.93
2019-02-12T16:05:02.384Z,13.32
2019-02-12T16:10:11.225Z,14.28
2019-02-12T16:15:21.112Z,15.23
2019-02-12T16:20:25.761Z,13.87
2019-02-12T16:25:33.842Z,13.68
2019-02-12T16:30:40.091Z,14.33
2019-02-12T16:35:46.302Z,14.63
2019-02-12T16:40:52.543Z,14.53
2019-02-12T16:46:05.309Z,13.97
2019-02-12T16:51:11.860Z,15.58
2019-02-12T16:56:18.145Z,15.10
2019-02-12T17:01:24.425Z,17.98
2019-02-12T17:06:30.688Z,14.50
2019-02-12T17:11:37.163Z,14.57
2019-02-12T17:16:43.524Z,14.00
2019-02-12T17:21:49.764Z,14.13
2019-02-12T17:26:56.090Z,13.90
2019-02-12T17:32:02.360Z,13.88
2019-02-12T17:37:08.765Z,15.57
2019-02-12T17:42:15.129Z,14.80
2019-02-12T17:47:21.544Z,14.83
2019-02-12T17:52:27.904Z,14.60
2019-02-12T17:57:34.279Z,15.27
2019-02-12T18:02:41.735Z,16.43
2019-02-12T18:07:48.085Z,16.43
2019-02-12T18:12:54.569Z,16.40
2019-02-12T18:18:01.178Z,14.83
2019-02-12T18:23:07.555Z,16.35
2019-02-12T18:28:13.978Z,15.73
2019-02-12T18:33:20.273Z,16.07
2019-02-12T18:38:26.527Z,14.40
2019-02-12T18:43:32.784Z,14.70
2019-02-12T18:48:39.204Z,15.87
2019-02-12T18:53:45.776Z,14.70
2019-02-12T18:58:54.820Z,14.37
2019-02-12T19:04:01.111Z,15.57
2019-02-12T19:09:12.679Z,14.90
2019-02-12T19:14:19.254Z,14.37
2019-02-12T19:19:25.709Z,15.43
2019-02-12T19:24:31.988Z,15.27
2019-02-12T19:29:38.242Z,15.13
2019-02-12T19:34:44.589Z,15.18
2019-02-12T19:39:50.860Z,14.57
2019-02-12T19:44:57.187Z,15.23
2019-02-12T19:50:04.919Z,15.08
2019-02-12T19:55:12.325Z,15.43
2019-02-12T20:00:20.032Z,14.40
2019-02-12T20:05:26.294Z,15.65
2019-02-12T20:10:32.763Z,15.90
2019-02-12T20:15:39.068Z,15.47
2019-02-12T20:20:45.362Z,16.30
2019-02-12T20:25:51.799Z,16.60
2019-02-12T20:30:58.164Z,17.13
2019-02-12T20:36:05.405Z,17.50
2019-02-12T20:41:11.709Z,18.57
2019-02-12T20:46:18.048Z,17.20
2019-02-12T20:51:24.350Z,18.25
2019-02-12T20:56:30.573Z,16.40
2019-02-12T21:01:36.845Z,17.20
2019-02-12T21:06:43.113Z,19.10
2019-02-12T21:11:49.413Z,19.13
2019-02-12T21:16:55.691Z,16.52
2019-02-12T21:22:02.044Z,18.47
2019-02-12T21:27:08.442Z,17.50
2019-02-12T21:32:14.828Z,18.98
2019-02-12T21:37:21.105Z,17.73
2019-02-12T21:42:27.440Z,18.48
2019-02-12T21:47:33.663Z,18.20
2019-02-12T21:52:39.880Z,17.77
2019-02-12T21:57:46.201Z,19.10
2019-02-12T22:02:52.491Z,18.03
2019-02-12T22:07:58.865Z,17.85
2019-02-12T22:13:06.112Z,19.35
2019-02-12T22:18:12.351Z,18.73
2019-02-12T22:23:18.554Z,19.73
2019-02-12T22:28:24.891Z,19.37
2019-02-12T22:33:31.097Z,19.23
2019-02-12T22:38:37.314Z,20.13
2019-02-12T22:43:43.602Z,19.45
2019-02-12T22:48:49.847Z,18.97
2019-02-12T22:53:56.149Z,19.27
2019-02-12T22:59:02.368Z,20.70
2019-02-12T23:04:08.610Z,19.13
2019-02-12T23:09:18.502Z,20.20
2019-02-12T23:14:24.753Z,19.93
2019-02-12T23:19:30.995Z,19.07
2019-02-12T23:24:37.224Z,19.90
2019-02-12T23:29:43.466Z,19.80
2019-02-12T23:34:56.965Z,20.02
2019-02-12T23:39:57.795Z,21.03
2019-02-12T23:45:04.136Z,20.27
2019-02-12T23:50:11.299Z,19.77
2019-02-12T23:55:17.536Z,20.12
